createdAt,value
2023-03-27T00:00:14.777Z,97
2023-03-27T00:00:46.183Z,97
2023-03-27T00:01:14.186Z,97
2023-03-27T00:01:45.637Z,97
2023-03-27T00:02:17.310Z,97
2023-03-27T00:02:48.155Z,97
2023-03-27T00:03:19.040Z,97
2023-03-27T00:03:49.744Z,97
2023-03-27T00:04:21.153Z,97
2023-03-27T00:04:51.220Z,97
2023-03-27T00:05:24.380Z,97
2023-03-27T00:05:54.262Z,97
2023-03-27T00:06:25.285Z,97
2023-03-27T00:06:55.313Z,97
2023-03-27T00:07:26.948Z,97
2023-03-27T00:07:57.284Z,97
2023-03-27T00:08:29.023Z,97
2023-03-27T00:08:59.184Z,97
2023-03-27T00:09:31.163Z,97
2023-03-27T00:10:02.409Z,97
2023-03-27T00:10:32.874Z,97
2023-03-27T00:11:04.412Z,97
2023-03-27T00:11:35.006Z,97
2023-03-27T00:12:05.621Z,97
2023-03-27T00:12:37.485Z,97
2023-03-27T00:13:07.372Z,97
2023-03-27T00:13:49.130Z,97
2023-03-27T00:14:09.299Z,97
2023-03-27T00:14:41.126Z,97
2023-03-27T00:15:12.092Z,97
2023-03-27T00:15:42.960Z,97
2023-03-27T00:16:14.316Z,97
2023-03-27T00:16:44.940Z,97
2023-03-27T00:17:15.257Z,97
2023-03-27T00:17:47.084Z,97
2023-03-27T00:18:17.220Z,97
2023-03-27T00:18:49.109Z,97
2023-03-27T00:19:19.621Z,97
2023-03-27T00:19:50.918Z,97
2023-03-27T00:20:21.834Z,97
2023-03-27T00:20:53.149Z,97
2023-03-27T00:21:24.417Z,97
2023-03-27T00:21:55.157Z,97
2023-03-27T00:22:25.690Z,97
2023-03-27T00:22:57.270Z,97
2023-03-27T00:23:27.209Z,97
2023-03-27T00:23:59.277Z,97
2023-03-27T00:24:29.228Z,97
2023-03-27T00:25:02.149Z,97
2023-03-27T00:25:31.266Z,97
2023-03-27T00:26:03.110Z,97
2023-03-27T00:26:34.246Z,97
2023-03-27T00:27:06.279Z,97
2023-03-27T00:27:35.220Z,97
2023-03-27T00:28:07.283Z,97
2023-03-27T00:28:37.306Z,97
2023-03-27T00:29:09.169Z,97
2023-03-27T00:29:39.719Z,97
2023-03-27T00:30:11.741Z,97
2023-03-27T00:30:41.271Z,98
2023-03-27T00:31:13.034Z,98
2023-03-27T00:31:44.222Z,98
2023-03-27T00:32:14.882Z,98
2023-03-27T00:32:46.027Z,98
2023-03-27T00:33:17.096Z,98
2023-03-27T00:33:47.582Z,97
2023-03-27T00:34:18.989Z,97
2023-03-27T00:34:49.196Z,97
2023-03-27T00:35:21.608Z,97
2023-03-27T00:35:51.224Z,97
2023-03-27T00:36:23.324Z,97
2023-03-27T00:36:54.164Z,97
2023-03-27T00:37:24.936Z,97
2023-03-27T00:37:55.224Z,97
2023-03-27T00:38:27.096Z,97
2023-03-27T00:38:57.206Z,97
2023-03-27T00:39:28.965Z,97
2023-03-27T00:39:59.187Z,97
2023-03-27T00:40:39.478Z,97
2023-03-27T00:41:01.487Z,97
2023-03-27T00:41:33.009Z,97
2023-03-27T00:42:04.212Z,97
2023-03-27T00:42:35.160Z,97
2023-03-27T00:43:06.043Z,97
2023-03-27T00:43:37.182Z,97
2023-03-27T00:44:07.239Z,97
2023-03-27T00:44:40.082Z,97
2023-03-27T00:45:10.352Z,97
2023-03-27T00:45:41.581Z,97
2023-03-27T00:46:11.199Z,97
2023-03-27T00:46:43.118Z,97
2023-03-27T00:47:14.361Z,97
2023-03-27T00:47:45.303Z,97
2023-03-27T00:48:15.159Z,97
2023-03-27T00:48:46.930Z,96
2023-03-27T00:49:17.217Z,96
2023-03-27T00:49:49.360Z,96
2023-03-27T00:50:19.664Z,96
2023-03-27T00:50:50.882Z,96
2023-03-27T00:51:21.226Z,96
2023-03-27T00:51:53.016Z,96
2023-03-27T00:52:24.782Z,96
2023-03-27T00:52:55.014Z,96
2023-03-27T00:53:25.588Z,96
2023-03-27T00:53:57.223Z,96
2023-03-27T00:54:27.231Z,96
2023-03-27T00:54:59.005Z,96
2023-03-27T00:55:29.759Z,96
2023-03-27T00:56:00.876Z,96
2023-03-27T00:56:32.168Z,96
2023-03-27T00:57:02.961Z,96
2023-03-27T00:57:34.654Z,96
2023-03-27T00:58:06.034Z,96
2023-03-27T00:58:35.568Z,96
2023-03-27T00:59:07.175Z,96
2023-03-27T00:59:37.225Z,96
2023-03-27T01:00:10.730Z,96
2023-03-27T01:00:39.626Z,96
2023-03-27T01:01:10.277Z,96
2023-03-27T01:01:41.298Z,96
2023-03-27T01:02:13.260Z,96
2023-03-27T01:02:44.252Z,96
2023-03-27T01:03:15.409Z,96
2023-03-27T01:03:45.589Z,96
2023-03-27T01:04:17.078Z,95
2023-03-27T01:04:47.326Z,95
2023-03-27T01:05:19.581Z,95
2023-03-27T01:05:49.317Z,95
2023-03-27T01:06:21.143Z,95
2023-03-27T01:06:51.227Z,95
2023-03-27T01:07:23.172Z,94
2023-03-27T01:08:00.951Z,94
2023-03-27T01:08:25.082Z,94
2023-03-27T01:08:55.177Z,95
2023-03-27T01:09:27.211Z,95
2023-03-27T01:09:57.773Z,95
2023-03-27T01:10:29.718Z,95
2023-03-27T01:10:59.268Z,95
2023-03-27T01:11:31.169Z,95
2023-03-27T01:12:01.307Z,95
2023-03-27T01:12:32.864Z,95
2023-03-27T01:13:04.193Z,95
2023-03-27T01:13:35.172Z,95
2023-03-27T01:14:05.616Z,95
2023-03-27T01:14:37.221Z,95
2023-03-27T01:15:08.150Z,95
2023-03-27T01:15:39.005Z,94
2023-03-27T01:16:09.188Z,94
2023-03-27T01:16:41.866Z,94
2023-03-27T01:17:11.335Z,94
2023-03-27T01:17:43.791Z,94
2023-03-27T01:18:14.222Z,94
2023-03-27T01:18:44.863Z,94
2023-03-27T01:19:15.154Z,94
2023-03-27T01:19:47.165Z,94
2023-03-27T01:20:17.803Z,94
2023-03-27T01:20:48.862Z,94
2023-03-27T01:21:19.154Z,94
2023-03-27T01:21:50.943Z,94
2023-03-27T01:22:21.183Z,94
2023-03-27T01:22:52.993Z,94
2023-03-27T01:23:35.423Z,94
2023-03-27T01:23:58.960Z,94
2023-03-27T01:24:25.465Z,94
2023-03-27T01:24:58.776Z,94
2023-03-27T01:25:27.848Z,94
2023-03-27T01:25:59.122Z,94
2023-03-27T01:26:35.625Z,94
2023-03-27T01:27:02.331Z,94
2023-03-27T01:27:31.353Z,94
2023-03-27T01:28:03.101Z,93
2023-03-27T01:28:34.205Z,93
2023-03-27T01:29:05.931Z,93
2023-03-27T01:29:35.154Z,93
2023-03-27T01:30:08.457Z,93
2023-03-27T01:30:37.273Z,93
2023-03-27T01:31:09.195Z,93
2023-03-27T01:31:39.241Z,93
2023-03-27T01:32:10.974Z,93
2023-03-27T01:32:41.274Z,93
2023-03-27T01:33:13.366Z,93
2023-03-27T01:33:44.209Z,94
2023-03-27T01:34:15.075Z,94
2023-03-27T01:34:45.577Z,94
2023-03-27T01:35:17.811Z,94
2023-03-27T01:35:47.349Z,94
2023-03-27T01:36:19.101Z,94
2023-03-27T01:36:49.786Z,93
2023-03-27T01:37:20.948Z,93
2023-03-27T01:37:51.184Z,93
2023-03-27T01:38:23.456Z,93
2023-03-27T01:38:54.162Z,93
2023-03-27T01:39:24.888Z,93
2023-03-27T01:39:55.172Z,93
2023-03-27T01:40:37.149Z,93
2023-03-27T01:40:57.692Z,93
2023-03-27T01:41:28.966Z,94
2023-03-27T01:41:59.187Z,94
2023-03-27T01:42:30.980Z,93
2023-03-27T01:43:01.308Z,93
2023-03-27T01:43:33.340Z,93
2023-03-27T01:44:04.224Z,93
2023-03-27T01:44:43.229Z,92
2023-03-27T01:45:06.636Z,93
2023-03-27T01:45:37.008Z,93
2023-03-27T01:46:07.336Z,93
2023-03-27T01:46:39.070Z,93
2023-03-27T01:47:09.176Z,93
2023-03-27T01:47:41.152Z,93
2023-03-27T01:48:11.195Z,93
2023-03-27T01:48:42.975Z,93
2023-03-27T01:49:14.170Z,93
2023-03-27T01:49:45.003Z,93
2023-03-27T01:50:16.229Z,93
2023-03-27T01:50:47.095Z,93
2023-03-27T01:51:17.212Z,94
2023-03-27T01:51:49.386Z,93
2023-03-27T01:52:19.179Z,93
2023-03-27T01:52:51.963Z,93
2023-03-27T01:53:21.161Z,93
2023-03-27T01:53:53.376Z,93
2023-03-27T01:54:24.175Z,94
2023-03-27T01:54:55.393Z,94
2023-03-27T01:55:26.016Z,94
2023-03-27T01:55:57.074Z,94
2023-03-27T01:56:27.174Z,94
2023-03-27T01:56:59.439Z,94
2023-03-27T01:57:29.145Z,94
2023-03-27T01:58:01.386Z,94
2023-03-27T01:58:31.179Z,94
2023-03-27T01:59:02.966Z,94
2023-03-27T01:59:34.217Z,94
2023-03-27T02:00:17.283Z,94
2023-03-27T02:00:52.140Z,94
2023-03-27T02:01:06.960Z,94
2023-03-27T02:01:37.376Z,94
2023-03-27T02:02:09.223Z,94
2023-03-27T02:02:39.333Z,94
2023-03-27T02:03:10.925Z,94
2023-03-27T02:03:41.225Z,94
2023-03-27T02:04:13.057Z,94
2023-03-27T02:04:44.541Z,95
2023-03-27T02:05:16.090Z,95
2023-03-27T02:05:46.255Z,95
2023-03-27T02:06:18.042Z,95
2023-03-27T02:06:48.231Z,95
2023-03-27T02:07:19.069Z,95
2023-03-27T02:07:49.457Z,95
2023-03-27T02:08:20.966Z,95
2023-03-27T02:08:51.183Z,95
2023-03-27T02:09:23.023Z,94
2023-03-27T02:09:54.951Z,94
2023-03-27T02:10:26.010Z,94
2023-03-27T02:10:55.434Z,94
2023-03-27T02:11:27.049Z,94
2023-03-27T02:11:57.426Z,94
2023-03-27T02:12:28.846Z,95
2023-03-27T02:12:59.130Z,95
2023-03-27T02:13:30.916Z,95
2023-03-27T02:14:01.333Z,95
2023-03-27T02:14:33.197Z,95
2023-03-27T02:15:22.372Z,95
2023-03-27T02:15:35.847Z,95
2023-03-27T02:16:05.465Z,95
2023-03-27T02:16:37.263Z,95
2023-03-27T02:17:07.345Z,94
2023-03-27T02:17:39.138Z,94
2023-03-27T02:18:09.161Z,94
2023-03-27T02:18:41.070Z,95
2023-03-27T02:19:11.450Z,95
2023-03-27T02:19:42.985Z,94
2023-03-27T02:20:15.040Z,94
2023-03-27T02:20:45.882Z,95
2023-03-27T02:21:15.567Z,95
2023-03-27T02:21:47.192Z,95
2023-03-27T02:22:17.255Z,95
2023-03-27T02:22:49.213Z,94
2023-03-27T02:23:19.155Z,94
2023-03-27T02:23:51.393Z,94
2023-03-27T02:24:21.157Z,94
2023-03-27T02:24:52.850Z,94
2023-03-27T02:25:24.855Z,94
2023-03-27T02:25:54.867Z,94
2023-03-27T02:26:25.567Z,95
2023-03-27T02:26:56.889Z,95
2023-03-27T02:27:27.206Z,95
2023-03-27T02:28:04.555Z,95
2023-03-27T02:28:30.131Z,95
2023-03-27T02:29:00.152Z,95
2023-03-27T02:29:31.993Z,95
2023-03-27T02:30:03.563Z,95
2023-03-27T02:30:35.441Z,95
2023-03-27T02:31:31.019Z,95
2023-03-27T02:31:35.511Z,95
2023-03-27T02:32:07.238Z,95
2023-03-27T02:32:37.463Z,95
2023-03-27T02:33:09.121Z,95
2023-03-27T02:33:39.190Z,95
2023-03-27T02:34:11.804Z,95
2023-03-27T02:34:41.696Z,95
2023-03-27T02:35:13.565Z,95
2023-03-27T02:35:44.173Z,95
2023-03-27T02:36:15.071Z,95
2023-03-27T02:36:45.464Z,94
2023-03-27T02:37:18.074Z,95
2023-03-27T02:37:47.219Z,94
2023-03-27T02:38:19.165Z,94
2023-03-27T02:38:49.190Z,95
2023-03-27T02:39:20.853Z,95
2023-03-27T02:39:51.181Z,95
2023-03-27T02:40:23.610Z,95
2023-03-27T02:40:54.283Z,94
2023-03-27T02:41:25.158Z,94
2023-03-27T02:41:55.152Z,94
2023-03-27T02:42:27.212Z,94
2023-03-27T02:42:57.549Z,94
2023-03-27T02:43:28.966Z,94
2023-03-27T02:43:59.196Z,94
2023-03-27T02:44:31.136Z,94
2023-03-27T02:45:02.570Z,94
2023-03-27T02:45:33.305Z,94
2023-03-27T02:46:04.197Z,94
2023-03-27T02:46:35.341Z,94
2023-03-27T02:47:05.453Z,94
2023-03-27T02:47:37.306Z,93
2023-03-27T02:48:07.865Z,93
2023-03-27T02:48:39.448Z,93
2023-03-27T02:49:09.185Z,93
2023-03-27T02:49:40.864Z,93
2023-03-27T02:50:11.696Z,93
2023-03-27T02:50:43.555Z,93
2023-03-27T02:51:14.185Z,93
2023-03-27T02:51:45.088Z,93
2023-03-27T02:52:15.176Z,93
2023-03-27T02:52:47.271Z,93
2023-03-27T02:53:17.333Z,93
2023-03-27T02:53:48.987Z,94
2023-03-27T02:54:19.197Z,94
2023-03-27T02:54:50.974Z,94
2023-03-27T02:55:23.166Z,93
2023-03-27T02:55:53.009Z,93
2023-03-27T02:56:24.172Z,93
2023-03-27T02:56:55.014Z,93
2023-03-27T02:57:26.222Z,93
2023-03-27T02:57:57.071Z,93
2023-03-27T02:58:27.245Z,93
2023-03-27T02:58:59.085Z,93
2023-03-27T02:59:29.177Z,93
2023-03-27T03:00:04.013Z,93
2023-03-27T03:00:31.436Z,94
2023-03-27T03:01:03.817Z,94
2023-03-27T03:01:34.252Z,94
2023-03-27T03:02:06.299Z,94
2023-03-27T03:02:35.410Z,94
2023-03-27T03:03:06.411Z,94
2023-03-27T03:03:38.240Z,94
2023-03-27T03:04:08.236Z,93
2023-03-27T03:04:40.246Z,93
2023-03-27T03:05:10.714Z,93
2023-03-27T03:05:42.094Z,93
2023-03-27T03:06:12.261Z,93
2023-03-27T03:06:45.779Z,93
2023-03-27T03:07:14.352Z,93
2023-03-27T03:07:45.803Z,93
2023-03-27T03:08:17.724Z,94
2023-03-27T03:08:47.621Z,94
2023-03-27T03:09:19.188Z,94
2023-03-27T03:09:49.181Z,94
2023-03-27T03:10:21.654Z,94
2023-03-27T03:10:51.130Z,93
2023-03-27T03:11:23.088Z,93
2023-03-27T03:11:54.325Z,93
2023-03-27T03:12:25.050Z,93
2023-03-27T03:12:55.188Z,93
2023-03-27T03:13:27.085Z,93
2023-03-27T03:13:57.218Z,93
2023-03-27T03:14:29.049Z,93
2023-03-27T03:14:59.837Z,93
2023-03-27T03:15:32.134Z,94
2023-03-27T03:16:01.378Z,94
2023-03-27T03:16:32.922Z,94
2023-03-27T03:17:04.185Z,94
2023-03-27T03:17:35.601Z,94
2023-03-27T03:18:05.700Z,94
2023-03-27T03:18:37.019Z,93
2023-03-27T03:19:07.314Z,93
2023-03-27T03:19:39.029Z,93
2023-03-27T03:20:09.803Z,93
2023-03-27T03:20:41.137Z,93
2023-03-27T03:21:11.364Z,94
2023-03-27T03:21:43.201Z,93
2023-03-27T03:22:14.255Z,93
2023-03-27T03:22:45.105Z,93
2023-03-27T03:23:15.193Z,93
2023-03-27T03:23:57.870Z,93
2023-03-27T03:24:17.313Z,93
2023-03-27T03:24:49.192Z,93
2023-03-27T03:25:19.695Z,93
2023-03-27T03:25:50.982Z,93
2023-03-27T03:26:21.167Z,93
2023-03-27T03:26:52.837Z,93
2023-03-27T03:27:24.209Z,93
2023-03-27T03:27:55.249Z,93
2023-03-27T03:28:25.687Z,93
2023-03-27T03:29:00.948Z,93
2023-03-27T03:29:27.166Z,93
2023-03-27T03:29:59.156Z,93
2023-03-27T03:30:30.033Z,93
2023-03-27T03:31:02.020Z,94
2023-03-27T03:31:31.274Z,93
2023-03-27T03:32:02.928Z,93
2023-03-27T03:32:34.197Z,93
2023-03-27T03:33:06.853Z,93
2023-03-27T03:33:35.210Z,92
2023-03-27T03:34:06.172Z,93
2023-03-27T03:34:37.869Z,93
2023-03-27T03:35:09.274Z,93
2023-03-27T03:35:40.084Z,93
2023-03-27T03:36:10.224Z,93
2023-03-27T03:36:42.022Z,93
2023-03-27T03:37:12.139Z,93
2023-03-27T03:37:44.950Z,93
2023-03-27T03:38:14.232Z,93
2023-03-27T03:38:46.302Z,93
2023-03-27T03:39:16.154Z,93
2023-03-27T03:39:48.008Z,93
2023-03-27T03:40:18.739Z,93
2023-03-27T03:40:49.944Z,93
2023-03-27T03:41:20.149Z,93
2023-03-27T03:41:51.908Z,93
2023-03-27T03:42:22.277Z,93
2023-03-27T03:42:57.051Z,93
2023-03-27T03:43:24.139Z,93
2023-03-27T03:43:55.163Z,93
2023-03-27T03:44:27.862Z,93
2023-03-27T03:44:57.362Z,94
2023-03-27T03:45:29.940Z,94
2023-03-27T03:45:59.240Z,93
2023-03-27T03:46:32.113Z,93
2023-03-27T03:47:01.360Z,93
2023-03-27T03:47:33.137Z,93
2023-03-27T03:48:04.148Z,93
2023-03-27T03:48:35.251Z,93
2023-03-27T03:49:05.437Z,93
2023-03-27T03:49:37.069Z,93
2023-03-27T03:50:08.137Z,93
2023-03-27T03:50:38.833Z,93
2023-03-27T03:51:09.180Z,93
2023-03-27T03:51:41.330Z,93
2023-03-27T03:52:11.176Z,93
2023-03-27T03:52:43.247Z,93
2023-03-27T03:53:14.130Z,93
2023-03-27T03:53:45.238Z,93
2023-03-27T03:54:15.407Z,93
2023-03-27T03:54:47.068Z,94
2023-03-27T03:55:18.574Z,94
2023-03-27T03:55:50.077Z,93
2023-03-27T03:56:19.124Z,93
2023-03-27T03:56:50.241Z,93
2023-03-27T03:57:21.877Z,93
2023-03-27T03:57:52.103Z,93
2023-03-27T03:58:34.141Z,93
2023-03-27T03:58:54.242Z,93
2023-03-27T03:59:26.228Z,93
2023-03-27T03:59:56.129Z,93
2023-03-27T04:00:29.542Z,93
2023-03-27T04:01:00.969Z,93
2023-03-27T04:01:29.215Z,93
2023-03-27T04:02:00.919Z,93
2023-03-27T04:02:32.117Z,93
2023-03-27T04:03:02.172Z,93
2023-03-27T04:03:34.900Z,93
2023-03-27T04:04:05.118Z,93
2023-03-27T04:04:36.968Z,93
2023-03-27T04:05:08.679Z,93
2023-03-27T04:05:38.157Z,93
2023-03-27T04:06:08.303Z,93
2023-03-27T04:06:40.087Z,93
2023-03-27T04:07:10.157Z,93
2023-03-27T04:07:42.062Z,93
2023-03-27T04:08:12.139Z,93
2023-03-27T04:08:44.922Z,93
2023-03-27T04:09:14.107Z,94
2023-03-27T04:09:48.396Z,94
2023-03-27T04:10:16.741Z,93
2023-03-27T04:10:49.727Z,93
2023-03-27T04:11:18.172Z,93
2023-03-27T04:11:49.143Z,93
2023-03-27T04:12:21.067Z,93
2023-03-27T04:12:51.111Z,93
2023-03-27T04:13:23.252Z,93
2023-03-27T04:13:54.161Z,93
2023-03-27T04:14:24.835Z,93
2023-03-27T04:14:55.621Z,93
2023-03-27T04:15:28.190Z,93
2023-03-27T04:15:57.239Z,93
2023-03-27T04:16:28.982Z,93
2023-03-27T04:16:59.170Z,93
2023-03-27T04:17:31.746Z,93
2023-03-27T04:18:01.331Z,93
2023-03-27T04:18:33.172Z,93
2023-03-27T04:19:04.159Z,93
2023-03-27T04:19:34.910Z,93
2023-03-27T04:20:06.422Z,93
2023-03-27T04:20:39.149Z,93
2023-03-27T04:21:07.136Z,93
2023-03-27T04:21:38.930Z,93
2023-03-27T04:22:09.672Z,93
2023-03-27T04:22:41.279Z,93
2023-03-27T04:23:11.610Z,93
2023-03-27T04:23:43.034Z,93
2023-03-27T04:24:14.168Z,93
2023-03-27T04:24:45.411Z,93
2023-03-27T04:25:15.708Z,93
2023-03-27T04:25:47.187Z,93
2023-03-27T04:26:17.215Z,93
2023-03-27T04:26:49.016Z,93
2023-03-27T04:27:19.277Z,92
2023-03-27T04:27:50.857Z,92
2023-03-27T04:28:21.133Z,92
2023-03-27T04:28:52.998Z,92
2023-03-27T04:29:24.143Z,93
2023-03-27T04:29:55.126Z,93
2023-03-27T04:30:26.434Z,93
2023-03-27T04:30:57.517Z,93
2023-03-27T04:31:27.163Z,93
2023-03-27T04:31:59.995Z,93
2023-03-27T04:32:29.153Z,93
2023-03-27T04:33:01.145Z,93
2023-03-27T04:33:31.184Z,92
2023-03-27T04:34:03.068Z,92
2023-03-27T04:34:34.815Z,92
2023-03-27T04:35:06.644Z,92
2023-03-27T04:35:35.802Z,92
2023-03-27T04:36:08.033Z,92
2023-03-27T04:36:37.174Z,92
2023-03-27T04:37:09.153Z,92
2023-03-27T04:37:39.150Z,92
2023-03-27T04:38:11.442Z,92
2023-03-27T04:38:41.159Z,92
2023-03-27T04:39:12.860Z,92
2023-03-27T04:39:44.152Z,92
2023-03-27T04:40:15.362Z,92
2023-03-27T04:40:47.786Z,92
2023-03-27T04:41:17.112Z,92
2023-03-27T04:41:47.399Z,92
2023-03-27T04:42:18.994Z,92
2023-03-27T04:42:49.157Z,93
2023-03-27T04:43:20.824Z,93
2023-03-27T04:43:51.110Z,93
2023-03-27T04:44:22.842Z,93
2023-03-27T04:44:54.421Z,93
2023-03-27T04:45:25.928Z,93
2023-03-27T04:45:55.187Z,93
2023-03-27T04:46:26.981Z,93
2023-03-27T04:46:57.193Z,94
2023-03-27T04:47:28.879Z,94
2023-03-27T04:47:59.232Z,94
2023-03-27T04:48:30.828Z,94
2023-03-27T04:49:02.004Z,94
2023-03-27T04:49:32.829Z,94
2023-03-27T04:50:04.630Z,93
2023-03-27T04:50:35.176Z,93
2023-03-27T04:51:05.908Z,93
2023-03-27T04:51:38.433Z,93
2023-03-27T04:52:07.268Z,93
2023-03-27T04:52:38.290Z,93
2023-03-27T04:53:10.014Z,93
2023-03-27T04:53:40.093Z,93
2023-03-27T04:54:12.062Z,93
2023-03-27T04:54:42.109Z,93
2023-03-27T04:55:15.552Z,93
2023-03-27T04:55:44.501Z,93
2023-03-27T04:56:16.103Z,93
2023-03-27T04:56:46.149Z,93
2023-03-27T04:57:18.092Z,93
2023-03-27T04:57:48.114Z,93
2023-03-27T04:58:20.472Z,93
2023-03-27T04:58:50.621Z,94
2023-03-27T04:59:22.144Z,94
2023-03-27T04:59:52.150Z,94
2023-03-27T05:00:26.301Z,94
2023-03-27T05:00:58.511Z,94
2023-03-27T05:01:25.989Z,94
2023-03-27T05:01:56.129Z,94
2023-03-27T05:02:28.048Z,94
2023-03-27T05:02:58.234Z,94
2023-03-27T05:03:30.421Z,94
2023-03-27T05:04:00.241Z,94
2023-03-27T05:04:32.468Z,94
2023-03-27T05:05:03.456Z,94
2023-03-27T05:05:35.213Z,94
2023-03-27T05:06:05.321Z,94
2023-03-27T05:06:37.927Z,94
2023-03-27T05:07:06.288Z,94
2023-03-27T05:07:38.110Z,94
2023-03-27T05:08:08.297Z,94
2023-03-27T05:08:40.185Z,94
2023-03-27T05:09:10.698Z,94
2023-03-27T05:09:42.972Z,93
2023-03-27T05:10:12.983Z,93
2023-03-27T05:10:45.461Z,93
2023-03-27T05:11:14.272Z,93
2023-03-27T05:11:45.649Z,93
2023-03-27T05:12:17.273Z,93
2023-03-27T05:12:47.427Z,94
2023-03-27T05:13:19.313Z,94
2023-03-27T05:13:49.252Z,94
2023-03-27T05:14:22.519Z,94
2023-03-27T05:14:51.312Z,94
2023-03-27T05:15:24.231Z,94
2023-03-27T05:15:54.393Z,94
2023-03-27T05:16:25.205Z,94
2023-03-27T05:16:55.259Z,94
2023-03-27T05:17:27.309Z,94
2023-03-27T05:17:57.321Z,94
2023-03-27T05:18:29.680Z,94
2023-03-27T05:18:59.198Z,94
2023-03-27T05:19:31.006Z,94
2023-03-27T05:20:02.721Z,94
2023-03-27T05:20:38.379Z,94
2023-03-27T05:21:04.228Z,93
2023-03-27T05:21:35.586Z,93
2023-03-27T05:22:05.671Z,93
2023-03-27T05:22:37.451Z,93
2023-03-27T05:23:07.300Z,93
2023-03-27T05:23:39.667Z,93
2023-03-27T05:24:09.840Z,93
2023-03-27T05:24:41.353Z,93
2023-03-27T05:25:12.492Z,93
2023-03-27T05:25:43.013Z,93
2023-03-27T05:26:14.297Z,93
2023-03-27T05:26:45.182Z,93
2023-03-27T05:27:15.478Z,93
2023-03-27T05:27:47.426Z,94
2023-03-27T05:28:17.319Z,94
2023-03-27T05:28:49.016Z,94
2023-03-27T05:29:20.207Z,94
2023-03-27T05:29:51.082Z,93
2023-03-27T05:30:22.652Z,94
2023-03-27T05:30:53.323Z,93
2023-03-27T05:31:24.308Z,93
2023-03-27T05:31:55.624Z,93
2023-03-27T05:32:25.632Z,93
2023-03-27T05:32:57.188Z,93
2023-03-27T05:33:27.441Z,93
2023-03-27T05:33:59.137Z,93
2023-03-27T05:34:29.383Z,93
2023-03-27T05:35:01.612Z,93
2023-03-27T05:35:31.843Z,94
2023-03-27T05:36:03.305Z,94
2023-03-27T05:36:34.259Z,94
2023-03-27T05:37:06.071Z,94
2023-03-27T05:37:35.300Z,94
2023-03-27T05:38:07.003Z,94
2023-03-27T05:38:37.340Z,94
2023-03-27T05:39:09.196Z,94
2023-03-27T05:39:39.294Z,94
2023-03-27T05:40:12.584Z,94
2023-03-27T05:40:41.362Z,94
2023-03-27T05:41:13.074Z,94
2023-03-27T05:41:44.512Z,94
2023-03-27T05:42:15.053Z,94
2023-03-27T05:42:46.226Z,94
2023-03-27T05:43:17.486Z,94
2023-03-27T05:43:48.525Z,94
2023-03-27T05:44:19.089Z,94
2023-03-27T05:44:49.329Z,94
2023-03-27T05:45:23.280Z,94
2023-03-27T05:45:51.306Z,94
2023-03-27T05:46:23.193Z,94
2023-03-27T05:46:54.305Z,94
2023-03-27T05:47:25.242Z,94
2023-03-27T05:47:55.418Z,94
2023-03-27T05:48:26.980Z,94
2023-03-27T05:48:58.398Z,94
2023-03-27T05:49:29.354Z,94
2023-03-27T05:49:59.353Z,94
2023-03-27T05:50:31.579Z,94
2023-03-27T05:51:01.573Z,93
2023-03-27T05:51:33.190Z,93
2023-03-27T05:52:04.873Z,93
2023-03-27T05:52:35.167Z,93
2023-03-27T05:53:05.603Z,93
2023-03-27T05:53:38.247Z,94
2023-03-27T05:54:07.383Z,94
2023-03-27T05:54:39.234Z,93
2023-03-27T05:55:09.744Z,93
2023-03-27T05:55:41.013Z,94
2023-03-27T05:56:11.879Z,94
2023-03-27T05:56:43.318Z,94
2023-03-27T05:57:14.328Z,94
2023-03-27T05:57:45.378Z,94
2023-03-27T05:58:15.246Z,94
2023-03-27T05:58:48.088Z,94
2023-03-27T05:59:17.416Z,94
2023-03-27T05:59:49.296Z,93
2023-03-27T06:00:21.895Z,93
2023-03-27T06:00:51.917Z,93
2023-03-27T06:01:21.472Z,93
2023-03-27T06:01:52.376Z,93
2023-03-27T06:02:25.540Z,93
2023-03-27T06:02:55.113Z,94
2023-03-27T06:03:26.759Z,94
2023-03-27T06:03:56.467Z,94
2023-03-27T06:04:28.164Z,94
2023-03-27T06:04:58.271Z,94
2023-03-27T06:05:31.481Z,94
2023-03-27T06:06:00.426Z,94
2023-03-27T06:06:32.002Z,94
2023-03-27T06:07:02.352Z,94
2023-03-27T06:07:34.973Z,94
2023-03-27T06:08:05.367Z,94
2023-03-27T06:08:41.665Z,94
2023-03-27T06:09:07.175Z,95
2023-03-27T06:09:38.182Z,95
2023-03-27T06:10:13.714Z,95
2023-03-27T06:10:39.407Z,95
2023-03-27T06:11:11.088Z,95
2023-03-27T06:11:41.312Z,95
2023-03-27T06:12:13.750Z,95
2023-03-27T06:12:44.263Z,95
2023-03-27T06:13:15.282Z,95
2023-03-27T06:13:45.542Z,95
2023-03-27T06:14:17.436Z,95
2023-03-27T06:14:47.341Z,95
2023-03-27T06:15:21.180Z,95
2023-03-27T06:15:49.476Z,95
2023-03-27T06:16:21.626Z,95
2023-03-27T06:16:51.272Z,96
2023-03-27T06:17:23.768Z,96
2023-03-27T06:17:54.421Z,96
2023-03-27T06:18:24.999Z,96
2023-03-27T06:18:55.280Z,96
2023-03-27T06:19:27.077Z,96
2023-03-27T06:19:57.310Z,96
2023-03-27T06:20:40.107Z,96
2023-03-27T06:20:59.385Z,96
2023-03-27T06:21:33.123Z,96
2023-03-27T06:22:01.542Z,96
2023-03-27T06:22:32.303Z,96
2023-03-27T06:23:05.245Z,96
2023-03-27T06:23:34.311Z,96
2023-03-27T06:24:07.610Z,97
2023-03-27T06:24:36.338Z,97
2023-03-27T06:25:09.010Z,97
2023-03-27T06:25:38.322Z,97
2023-03-27T06:26:10.415Z,97
2023-03-27T06:26:40.342Z,97
2023-03-27T06:27:12.280Z,97
2023-03-27T06:27:42.332Z,97
2023-03-27T06:28:15.912Z,97
2023-03-27T06:28:44.390Z,97
2023-03-27T06:29:16.032Z,97
2023-03-27T06:29:47.507Z,97
2023-03-27T06:30:20.157Z,97
2023-03-27T06:30:48.417Z,97
2023-03-27T06:31:20.410Z,97
2023-03-27T06:31:50.836Z,97
2023-03-27T06:32:23.898Z,97
2023-03-27T06:32:52.372Z,97
2023-03-27T06:33:24.977Z,97
2023-03-27T06:33:54.712Z,97
2023-03-27T06:34:26.547Z,97
2023-03-27T06:34:56.526Z,97
2023-03-27T06:35:29.002Z,97
2023-03-27T06:35:58.516Z,97
2023-03-27T06:36:30.712Z,97
2023-03-27T06:37:00.236Z,97
2023-03-27T06:37:32.215Z,97
2023-03-27T06:38:02.425Z,97
2023-03-27T06:38:35.497Z,97
2023-03-27T06:39:06.177Z,97
2023-03-27T06:39:35.308Z,97
2023-03-27T06:40:07.718Z,97
2023-03-27T06:40:41.408Z,97
2023-03-27T06:41:09.824Z,97
2023-03-27T06:41:39.508Z,97
2023-03-27T06:42:11.117Z,97
2023-03-27T06:42:43.224Z,96
2023-03-27T06:43:14.265Z,96
2023-03-27T06:43:44.288Z,96
2023-03-27T06:44:16.036Z,96
2023-03-27T06:44:45.570Z,96
2023-03-27T06:45:21.329Z,96
2023-03-27T06:45:47.625Z,96
2023-03-27T06:46:19.232Z,96
2023-03-27T06:46:49.397Z,96
2023-03-27T06:47:21.334Z,96
2023-03-27T06:47:54.749Z,96
2023-03-27T06:48:23.024Z,96
2023-03-27T06:48:54.416Z,96
2023-03-27T06:49:24.973Z,96
2023-03-27T06:49:56.038Z,96
2023-03-27T06:50:29.507Z,96
2023-03-27T06:50:57.495Z,95
2023-03-27T06:51:28.343Z,95
2023-03-27T06:52:00.131Z,95
2023-03-27T06:52:30.278Z,95
2023-03-27T06:53:04.256Z,95
2023-03-27T06:53:36.607Z,95
2023-03-27T06:54:05.196Z,95
2023-03-27T06:54:34.258Z,95
2023-03-27T06:55:08.997Z,95
2023-03-27T06:55:36.273Z,95
2023-03-27T06:56:08.213Z,94
2023-03-27T06:56:39.237Z,94
2023-03-27T06:57:10.201Z,93
2023-03-27T06:57:40.271Z,93
2023-03-27T06:58:12.016Z,92
2023-03-27T06:58:42.313Z,92
2023-03-27T06:59:15.766Z,91
2023-03-27T06:59:44.280Z,91
2023-03-27T07:00:17.522Z,91
2023-03-27T07:00:52.759Z,91
2023-03-27T07:01:19.062Z,90
2023-03-27T07:01:49.469Z,89
2023-03-27T07:02:19.319Z,88
2023-03-27T07:02:50.988Z,88
2023-03-27T07:03:22.354Z,86
2023-03-27T07:03:54.200Z,86
2023-03-27T07:04:24.302Z,84
2023-03-27T07:05:04.177Z,82
2023-03-27T07:05:26.168Z,82
2023-03-27T07:05:57.431Z,82
2023-03-27T07:06:27.547Z,83
2023-03-27T07:07:00.243Z,82
2023-03-27T07:07:29.741Z,82
2023-03-27T07:08:08.336Z,83
2023-03-27T07:08:31.219Z,80
2023-03-27T07:09:02.972Z,80
2023-03-27T07:09:36.241Z,79
2023-03-27T07:10:06.815Z,79
2023-03-27T07:10:35.381Z,79
2023-03-27T07:11:12.195Z,78
2023-03-27T07:11:37.283Z,79
2023-03-27T07:12:09.290Z,79
2023-03-27T07:12:41.062Z,80
2023-03-27T07:13:11.223Z,81
2023-03-27T07:13:41.540Z,81
2023-03-27T07:14:13.068Z,81
2023-03-27T07:14:44.589Z,82
2023-03-27T07:15:15.993Z,82
2023-03-27T07:15:47.820Z,81
2023-03-27T07:16:17.789Z,82
2023-03-27T07:16:48.511Z,82
2023-03-27T07:17:19.180Z,83
2023-03-27T07:17:49.616Z,83
2023-03-27T07:18:21.410Z,83
2023-03-27T07:18:51.469Z,83
2023-03-27T07:19:23.456Z,83
2023-03-27T07:19:54.432Z,83
2023-03-27T07:20:25.701Z,81
2023-03-27T07:20:56.522Z,81
2023-03-27T07:21:27.215Z,80
2023-03-27T07:21:57.507Z,81